createdAt,value
2023-05-01T00:01:09.137Z,101946.19
2023-05-01T00:03:40.692Z,101934.50
2023-05-01T00:06:11.043Z,101935.56
2023-05-01T00:08:40.865Z,101933.94
2023-05-01T00:11:12.805Z,101937.72
2023-05-01T00:13:42.463Z,101927.97
2023-05-01T00:16:13.050Z,101940.91
2023-05-01T00:18:44.278Z,101932.59
2023-05-01T00:21:14.525Z,101939.22
2023-05-01T00:23:44.456Z,101937.00
2023-05-01T00:26:14.613Z,101935.47
2023-05-01T00:28:48.039Z,101931.91
2023-05-01T00:31:18.646Z,101939.06
2023-05-01T00:33:51.317Z,101936.59
2023-05-01T00:36:21.812Z,101932.75
2023-05-01T00:38:51.520Z,101936.22
2023-05-01T00:41:22.395Z,101935.03
2023-05-01T00:43:52.232Z,101939.94
2023-05-01T00:46:23.379Z,101937.44
2023-05-01T00:48:55.278Z,101924.97
2023-05-01T00:51:27.650Z,101923.50
2023-05-01T00:53:57.595Z,101926.47
2023-05-01T00:56:28.322Z,101917.75
2023-05-01T00:58:58.196Z,101929.28
2023-05-01T01:01:29.077Z,101925.03
2023-05-01T01:04:00.671Z,101921.69
2023-05-01T01:06:35.071Z,101919.91
2023-05-01T01:09:11.842Z,101920.59
2023-05-01T01:11:47.042Z,101923.88
2023-05-01T01:14:19.970Z,101924.56
2023-05-01T01:16:56.649Z,101931.06
2023-05-01T01:19:50.949Z,101935.00
2023-05-01T01:22:24.107Z,101931.59
2023-05-01T01:25:16.209Z,101936.28
2023-05-01T01:28:13.350Z,101931.72
2023-05-01T01:30:57.075Z,101937.19
2023-05-01T01:33:43.502Z,101932.13
2023-05-01T01:36:17.447Z,101925.53
2023-05-01T01:38:48.452Z,101921.19
2023-05-01T01:41:21.578Z,101920.59
2023-05-01T01:43:54.991Z,101927.94
2023-05-01T01:46:25.599Z,101925.53
2023-05-01T01:48:59.143Z,101921.63
2023-05-01T01:51:29.758Z,101911.47
2023-05-01T01:54:02.191Z,101920.47
2023-05-01T01:56:33.430Z,101916.47
2023-05-01T01:59:04.730Z,101913.84
2023-05-01T02:01:35.939Z,101913.97
2023-05-01T02:04:09.098Z,101914.06
2023-05-01T02:06:39.932Z,101908.81
2023-05-01T02:09:11.300Z,101903.31
2023-05-01T02:11:42.567Z,101903.75
2023-05-01T02:14:13.446Z,101897.28
2023-05-01T02:16:44.175Z,101893.81
2023-05-01T02:19:16.358Z,101892.94
2023-05-01T02:21:47.183Z,101899.28
2023-05-01T02:24:17.977Z,101893.69
2023-05-01T02:26:51.171Z,101888.75
2023-05-01T02:29:21.543Z,101838.53
2023-05-01T02:31:51.256Z,101891.06
2023-05-01T02:34:23.676Z,101888.50
2023-05-01T02:36:53.590Z,101887.81
2023-05-01T02:39:24.382Z,101885.13
2023-05-01T02:41:55.403Z,101880.00
2023-05-01T02:44:26.625Z,101880.94
2023-05-01T02:46:57.954Z,101885.19
2023-05-01T02:49:31.978Z,101883.25
2023-05-01T02:52:02.620Z,101882.31
2023-05-01T02:54:34.560Z,101881.41
2023-05-01T02:57:05.723Z,101880.44
2023-05-01T02:59:36.346Z,101880.44
2023-05-01T03:02:06.516Z,101887.09
2023-05-01T03:04:38.466Z,101886.16
2023-05-01T03:07:09.803Z,101885.25
2023-05-01T03:09:40.705Z,101876.47
2023-05-01T03:12:10.553Z,101874.59
2023-05-01T03:14:40.797Z,101884.41
2023-05-01T03:17:11.455Z,101882.50
2023-05-01T03:19:43.381Z,101880.72
2023-05-01T03:22:13.214Z,101873.38
2023-05-01T03:24:43.987Z,101879.34
2023-05-01T03:27:13.933Z,101875.09
2023-05-01T03:29:44.685Z,101877.09
2023-05-01T03:32:15.352Z,101876.31
2023-05-01T03:34:47.490Z,101865.91
2023-05-01T03:37:18.397Z,101865.00
2023-05-01T03:39:48.956Z,101868.47
2023-05-01T03:42:37.412Z,101867.31
2023-05-01T03:45:15.127Z,101863.75
2023-05-01T03:47:45.640Z,101869.25
2023-05-01T03:50:18.098Z,101862.44
2023-05-01T03:52:50.384Z,101859.03
2023-05-01T03:55:21.560Z,101861.56
2023-05-01T03:57:53.275Z,101857.16
2023-05-01T04:00:24.657Z,101854.78
2023-05-01T04:02:54.934Z,101859.38
2023-05-01T04:05:29.136Z,101857.34
2023-05-01T04:08:04.722Z,101861.63
2023-05-01T04:10:35.068Z,101864.28
2023-05-01T04:13:07.874Z,101860.75
2023-05-01T04:15:38.848Z,101858.59
2023-05-01T04:18:08.788Z,101858.44
2023-05-01T04:20:41.937Z,101859.72
2023-05-01T04:23:13.384Z,101860.94
2023-05-01T04:25:43.615Z,101857.91
2023-05-01T04:28:17.263Z,101857.13
2023-05-01T04:30:47.965Z,101853.53
2023-05-01T04:33:18.148Z,101853.66
2023-05-01T04:35:50.483Z,101858.03
2023-05-01T04:38:20.592Z,101857.34
2023-05-01T04:40:52.959Z,101855.06
2023-05-01T04:43:22.919Z,101856.94
2023-05-01T04:45:53.516Z,101871.41
2023-05-01T04:48:23.933Z,101872.69
2023-05-01T04:50:56.612Z,101869.47
2023-05-01T04:53:28.981Z,101868.16
2023-05-01T04:55:59.641Z,101879.22
2023-05-01T04:58:30.412Z,101874.66
2023-05-01T05:01:05.737Z,101871.78
2023-05-01T05:03:36.021Z,101871.03
2023-05-01T05:06:08.053Z,101871.44
2023-05-01T05:08:38.654Z,101870.53
2023-05-01T05:11:13.732Z,101869.38
2023-05-01T05:14:04.398Z,101875.63
2023-05-01T05:16:36.008Z,101868.78
2023-05-01T05:19:06.410Z,101868.06
2023-05-01T05:21:42.494Z,101863.31
2023-05-01T05:24:12.487Z,101863.59
2023-05-01T05:26:43.214Z,101872.59
2023-05-01T05:29:13.932Z,101874.47
2023-05-01T05:31:44.317Z,101869.63
2023-05-01T05:34:14.369Z,101876.00
2023-05-01T05:36:46.219Z,101869.66
2023-05-01T05:39:17.621Z,101862.03
2023-05-01T05:41:49.580Z,101865.53
2023-05-01T05:44:20.126Z,101865.22
2023-05-01T05:46:50.689Z,101862.88
2023-05-01T05:49:30.274Z,101861.47
2023-05-01T05:52:02.232Z,101858.09
2023-05-01T05:54:32.500Z,101854.97
2023-05-01T05:57:03.590Z,101855.16
2023-05-01T05:59:34.965Z,101842.41
2023-05-01T06:02:05.493Z,101841.06
2023-05-01T06:04:35.834Z,101842.31
2023-05-01T06:07:08.464Z,101839.84
2023-05-01T06:09:38.531Z,101839.19
2023-05-01T06:12:09.669Z,101837.25
2023-05-01T06:14:41.398Z,101834.88
2023-05-01T06:17:12.566Z,101835.66
2023-05-01T06:19:42.385Z,101824.31
2023-05-01T06:22:15.702Z,101836.00
2023-05-01T06:25:01.547Z,101837.75
2023-05-01T06:27:33.760Z,101837.72
2023-05-01T06:32:57.457Z,101829.59
2023-05-01T06:35:43.173Z,101839.19
2023-05-01T06:38:14.963Z,101839.25
2023-05-01T06:40:47.432Z,101829.56
2023-05-01T06:43:31.181Z,101837.63
2023-05-01T06:46:04.222Z,101832.25
2023-05-01T06:48:43.540Z,101833.28
2023-05-01T06:51:33.265Z,101824.34
2023-05-01T06:54:06.890Z,101831.56
2023-05-01T06:56:49.504Z,101817.41
2023-05-01T06:59:28.156Z,101817.47
2023-05-01T07:02:10.423Z,101822.84
2023-05-01T07:05:08.141Z,101819.31
2023-05-01T07:08:00.867Z,101820.16
2023-05-01T07:10:53.330Z,101817.50
2023-05-01T07:13:26.189Z,101815.75
2023-05-01T07:16:00.503Z,101813.16
2023-05-01T07:18:36.508Z,101814.06
2023-05-01T07:21:07.118Z,101813.16
2023-05-01T07:23:38.817Z,101817.50
2023-05-01T07:26:12.735Z,101816.72
2023-05-01T07:28:43.342Z,101813.16
2023-05-01T07:31:13.799Z,101810.50
2023-05-01T07:33:44.114Z,101807.81
2023-05-01T07:36:14.534Z,101808.78
2023-05-01T07:38:45.574Z,101804.34
2023-05-01T07:41:17.707Z,101811.44
2023-05-01T07:43:47.805Z,101815.00
2023-05-01T07:46:19.117Z,101807.94
2023-05-01T07:48:49.894Z,101812.34
2023-05-01T07:51:22.312Z,101808.81
2023-05-01T07:53:55.798Z,101810.63
2023-05-01T07:56:28.087Z,101807.03
2023-05-01T07:59:00.236Z,101810.63
2023-05-01T08:01:31.348Z,101806.13
2023-05-01T08:04:03.959Z,101812.31
2023-05-01T08:06:34.846Z,101808.81
2023-05-01T08:09:06.065Z,101791.94
2023-05-01T08:11:38.055Z,101796.41
2023-05-01T08:14:09.734Z,101799.03
2023-05-01T08:16:40.200Z,101798.94
2023-05-01T08:19:11.082Z,101790.94
2023-05-01T08:21:42.174Z,101793.59
2023-05-01T08:24:15.826Z,101793.63
2023-05-01T08:26:50.004Z,101790.94
2023-05-01T08:29:21.535Z,101789.75
2023-05-01T08:31:53.894Z,101785.41
2023-05-01T08:34:24.917Z,101790.72
2023-05-01T08:36:55.366Z,101784.53
2023-05-01T08:39:25.349Z,101787.34
2023-05-01T08:41:58.905Z,101787.22
2023-05-01T08:44:30.161Z,101788.25
2023-05-01T08:47:08.595Z,101789.03
2023-05-01T08:49:39.645Z,101786.19
2023-05-01T08:52:10.283Z,101783.63
2023-05-01T08:54:41.454Z,101778.88
2023-05-01T08:57:14.379Z,101766.84
2023-05-01T08:59:46.648Z,101773.53
2023-05-01T09:02:17.820Z,101770.53
2023-05-01T09:04:48.822Z,101774.34
2023-05-01T09:07:19.349Z,101769.53
2023-05-01T09:09:49.476Z,101766.03
2023-05-01T09:12:26.461Z,101770.09
2023-05-01T09:14:56.968Z,101766.75
2023-05-01T09:17:46.630Z,101770.94
2023-05-01T09:20:20.813Z,101759.00
2023-05-01T09:22:52.131Z,101751.41
2023-05-01T09:25:21.952Z,101736.81
2023-05-01T09:27:54.098Z,101746.75
2023-05-01T09:30:34.146Z,101739.75
2023-05-01T09:33:08.128Z,101752.59
2023-05-01T09:35:50.553Z,101743.59
2023-05-01T09:38:22.146Z,101737.56
2023-05-01T09:40:52.450Z,101721.59
2023-05-01T09:43:31.894Z,101727.22
2023-05-01T09:46:13.261Z,101726.13
2023-05-01T09:48:56.739Z,101728.59
2023-05-01T09:51:27.360Z,101728.53
2023-05-01T09:53:58.367Z,101727.09
2023-05-01T09:56:28.465Z,101723.06
2023-05-01T09:59:00.642Z,101716.72
2023-05-01T10:01:48.823Z,101710.00
2023-05-01T10:04:19.815Z,101701.75
2023-05-01T10:06:49.928Z,101702.06
2023-05-01T10:09:28.764Z,101695.72
2023-05-01T10:12:07.966Z,101696.59
2023-05-01T10:14:55.628Z,101696.91
2023-05-01T10:17:26.447Z,101699.44
2023-05-01T10:19:57.183Z,101687.53
2023-05-01T10:22:28.801Z,101681.47
2023-05-01T10:24:59.866Z,101686.94
2023-05-01T10:27:29.966Z,101684.69
2023-05-01T10:30:05.335Z,101681.63
2023-05-01T10:32:35.699Z,101678.59
2023-05-01T10:35:09.485Z,101672.28
2023-05-01T10:37:42.464Z,101667.72
2023-05-01T10:40:31.164Z,101657.59
2023-05-01T10:43:28.949Z,101655.38
2023-05-01T10:46:15.845Z,101646.16
2023-05-01T10:48:57.006Z,101642.78
2023-05-01T10:51:28.456Z,101646.53
2023-05-01T10:54:19.671Z,101636.59
2023-05-01T10:56:50.142Z,101636.44
2023-05-01T10:59:20.286Z,101643.38
2023-05-01T11:01:52.183Z,101636.91
2023-05-01T11:04:56.202Z,101633.13
2023-05-01T11:07:28.706Z,101622.53
2023-05-01T11:09:59.275Z,101629.41
2023-05-01T11:12:47.930Z,101617.81
2023-05-01T11:15:27.388Z,101603.59
2023-05-01T11:17:58.036Z,101606.28
2023-05-01T11:20:46.463Z,101610.59
2023-05-01T11:23:22.078Z,101617.19
2023-05-01T11:25:52.099Z,101620.97
2023-05-01T11:28:25.699Z,101610.88
2023-05-01T11:30:55.840Z,101619.44
2023-05-01T11:33:28.815Z,101609.44
2023-05-01T11:36:00.103Z,101600.00
2023-05-01T11:38:32.147Z,101593.69
2023-05-01T11:41:04.373Z,101591.00
2023-05-01T11:43:34.571Z,101588.25
2023-05-01T11:46:04.674Z,101584.81
2023-05-01T11:48:35.404Z,101579.34
2023-05-01T11:51:13.986Z,101565.75
2023-05-01T11:53:45.937Z,101571.78
2023-05-01T11:58:55.739Z,101566.78
2023-05-01T12:01:35.132Z,101563.25
2023-05-01T12:04:05.972Z,101555.72
2023-05-01T12:06:44.111Z,101556.91
2023-05-01T12:09:18.180Z,101555.06
2023-05-01T12:11:52.727Z,101547.97
2023-05-01T12:14:24.776Z,101548.47
2023-05-01T12:16:54.722Z,101555.34
2023-05-01T12:19:25.469Z,101543.22
2023-05-01T12:22:06.858Z,101534.41
2023-05-01T12:24:39.173Z,101543.84
2023-05-01T12:27:11.676Z,101533.13
2023-05-01T12:29:42.675Z,101521.66
2023-05-01T12:32:12.729Z,101511.78
2023-05-01T12:34:43.405Z,101513.16
2023-05-01T12:37:13.283Z,101510.72
2023-05-01T12:39:46.198Z,101519.50
2023-05-01T12:42:17.205Z,101509.78
2023-05-01T12:44:47.626Z,101512.66
2023-05-01T12:47:17.797Z,101504.50
2023-05-01T12:49:48.205Z,101489.97
2023-05-01T12:52:28.105Z,101487.19
2023-05-01T12:55:06.030Z,101485.06
2023-05-01T12:57:37.125Z,101476.53
2023-05-01T13:00:09.904Z,101466.03
2023-05-01T13:02:41.573Z,101471.63
2023-05-01T13:05:17.644Z,101468.09
2023-05-01T13:07:51.654Z,101462.13
2023-05-01T13:10:35.589Z,101465.34
2023-05-01T13:13:05.975Z,101447.88
2023-05-01T13:15:36.863Z,101450.25
2023-05-01T13:18:07.201Z,101453.00
2023-05-01T13:20:43.518Z,101447.91
2023-05-01T13:23:15.482Z,101445.56
2023-05-01T13:25:47.951Z,101440.06
2023-05-01T13:28:22.233Z,101435.09
2023-05-01T13:30:52.624Z,101433.53
2023-05-01T13:33:22.701Z,101426.09
2023-05-01T13:35:53.065Z,101422.00
2023-05-01T13:38:24.997Z,101438.38
2023-05-01T13:40:59.201Z,101423.94
2023-05-01T13:43:29.583Z,101413.25
2023-05-01T13:46:00.886Z,101402.97
2023-05-01T13:48:32.408Z,101374.72
2023-05-01T13:51:02.772Z,101402.16
2023-05-01T13:53:32.841Z,101404.97
2023-05-01T13:56:05.223Z,101394.88
2023-05-01T13:58:35.290Z,101393.56
2023-05-01T14:01:16.809Z,101399.19
2023-05-01T14:03:47.133Z,101397.97
2023-05-01T14:06:19.274Z,101394.72
2023-05-01T14:08:54.687Z,101381.78
2023-05-01T14:11:27.184Z,101381.78
2023-05-01T14:14:03.858Z,101381.19
2023-05-01T14:16:34.496Z,101379.03
2023-05-01T14:19:06.591Z,101369.97
2023-05-01T14:21:42.217Z,101365.94
2023-05-01T14:24:12.093Z,101362.75
2023-05-01T14:26:45.206Z,101361.13
2023-05-01T14:29:20.692Z,101358.59
2023-05-01T14:31:51.777Z,101348.13
2023-05-01T14:34:22.058Z,101339.94
2023-05-01T14:36:52.552Z,101343.88
2023-05-01T14:39:22.512Z,101338.25
2023-05-01T14:41:56.331Z,101341.44
2023-05-01T14:44:28.312Z,101326.94
2023-05-01T14:46:59.292Z,101329.44
2023-05-01T14:49:29.981Z,101329.28
2023-05-01T14:52:00.345Z,101326.41
2023-05-01T14:54:30.431Z,101325.09
2023-05-01T14:57:04.202Z,101317.19
2023-05-01T14:59:34.050Z,101318.06
2023-05-01T15:02:04.479Z,101305.78
2023-05-01T15:04:36.380Z,101307.88
2023-05-01T15:07:06.886Z,101301.97
2023-05-01T15:09:36.631Z,101305.78
2023-05-01T15:12:08.170Z,101306.72
2023-05-01T15:14:38.045Z,101301.84
2023-05-01T15:17:08.506Z,101297.94
2023-05-01T15:19:38.326Z,101283.56
2023-05-01T15:22:08.634Z,101281.09
2023-05-01T15:24:39.528Z,101285.06
2023-05-01T15:27:11.337Z,101273.78
2023-05-01T15:29:41.251Z,101272.97
2023-05-01T15:32:12.875Z,101276.09
2023-05-01T15:34:43.096Z,101273.97
2023-05-01T15:37:13.557Z,101274.03
2023-05-01T15:39:43.682Z,101270.22
2023-05-01T15:42:15.528Z,101271.16
2023-05-01T15:44:45.409Z,101263.84
2023-05-01T15:47:16.261Z,101261.44
2023-05-01T15:49:46.594Z,101251.66
2023-05-01T15:52:17.140Z,101254.53
2023-05-01T15:54:47.782Z,101252.19
2023-05-01T15:57:22.567Z,101256.81
2023-05-01T15:59:56.207Z,101251.50
2023-05-01T16:02:27.419Z,101247.09
2023-05-01T16:04:57.696Z,101245.09
2023-05-01T16:07:30.385Z,101243.41
2023-05-01T16:10:00.578Z,101237.50
2023-05-01T16:12:32.860Z,101231.19
2023-05-01T16:15:03.731Z,101231.25
2023-05-01T16:17:34.394Z,101233.56
2023-05-01T16:20:04.659Z,101228.78
2023-05-01T16:22:35.198Z,101225.94
2023-05-01T16:25:05.316Z,101221.81
2023-05-01T16:27:41.618Z,101235.31
2023-05-01T16:30:12.447Z,101226.63
2023-05-01T16:32:42.700Z,101214.78
2023-05-01T16:35:12.714Z,101221.16
2023-05-01T16:37:42.928Z,101219.75
2023-05-01T16:40:17.197Z,101225.41
2023-05-01T16:42:53.749Z,101227.50
2023-05-01T16:45:23.776Z,101222.41
2023-05-01T16:47:56.738Z,101222.84
2023-05-01T16:50:28.107Z,101214.09
2023-05-01T16:53:00.115Z,101217.06
2023-05-01T16:55:30.601Z,101221.09
2023-05-01T16:58:02.685Z,101219.59
2023-05-01T17:00:32.613Z,101217.13
2023-05-01T17:03:03.269Z,101207.72
2023-05-01T17:05:33.534Z,101210.53
2023-05-01T17:08:04.289Z,101208.00
2023-05-01T17:10:34.574Z,101210.00
2023-05-01T17:13:06.866Z,101202.09
2023-05-01T17:15:36.655Z,101199.59
2023-05-01T17:18:08.039Z,101204.97
2023-05-01T17:20:38.433Z,101211.41
2023-05-01T17:23:11.005Z,101208.84
2023-05-01T17:25:42.196Z,101209.88
2023-05-01T17:28:25.565Z,101212.69
2023-05-01T17:30:56.673Z,101204.91
2023-05-01T17:33:27.484Z,101211.25
2023-05-01T17:35:59.919Z,101203.31
2023-05-01T17:38:30.514Z,101213.25
2023-05-01T17:41:00.378Z,101206.47
2023-05-01T17:43:32.552Z,101211.97
2023-05-01T17:46:03.125Z,101197.91
2023-05-01T17:48:34.376Z,101197.16
2023-05-01T17:51:04.401Z,101194.72
2023-05-01T17:53:34.804Z,101198.41
2023-05-01T17:56:07.994Z,101197.63
2023-05-01T17:58:43.302Z,101198.66
2023-05-01T18:01:13.578Z,101198.06
2023-05-01T18:03:45.575Z,101194.72
2023-05-01T18:06:15.995Z,101202.19
2023-05-01T18:08:46.667Z,101195.50
2023-05-01T18:11:16.782Z,101192.09
2023-05-01T18:13:49.026Z,101189.72
2023-05-01T18:16:19.050Z,101199.72
2023-05-01T18:18:49.696Z,101193.69
2023-05-01T18:21:20.157Z,101188.47
2023-05-01T18:23:51.436Z,101194.13
2023-05-01T18:26:21.442Z,101198.69
2023-05-01T18:28:53.974Z,101201.41
2023-05-01T18:31:24.143Z,101195.25
2023-05-01T18:33:55.024Z,101198.84
2023-05-01T18:36:25.215Z,101196.22
2023-05-01T18:38:56.014Z,101196.28
2023-05-01T18:41:26.902Z,101197.16
2023-05-01T18:44:01.555Z,101193.69
2023-05-01T18:46:31.722Z,101202.66
2023-05-01T18:49:02.110Z,101193.84
2023-05-01T18:51:32.029Z,101215.25
2023-05-01T18:54:05.025Z,101209.13
2023-05-01T18:56:38.191Z,101200.34
2023-05-01T18:59:11.682Z,101198.56
2023-05-01T19:01:42.701Z,101187.97
2023-05-01T19:04:13.264Z,101198.66
2023-05-01T19:06:44.391Z,101201.34
2023-05-01T19:09:15.177Z,101197.91
2023-05-01T19:11:44.972Z,101193.56
2023-05-01T19:14:22.464Z,101190.03
2023-05-01T19:16:52.690Z,101190.03
2023-05-01T19:19:25.450Z,101186.50
2023-05-01T19:21:59.424Z,101188.31
2023-05-01T19:24:30.562Z,101184.97
2023-05-01T19:27:03.015Z,101180.59
2023-05-01T19:29:38.039Z,101173.56
2023-05-01T19:32:10.611Z,101177.97
2023-05-01T19:34:41.525Z,101173.56
2023-05-01T19:37:15.138Z,101172.69
2023-05-01T19:39:49.048Z,101176.19
2023-05-01T19:42:21.895Z,101181.53
2023-05-01T19:44:54.467Z,101170.03
2023-05-01T19:47:25.265Z,101178.88
2023-05-01T19:49:58.262Z,101176.25
2023-05-01T19:52:29.498Z,101174.41
2023-05-01T19:55:04.147Z,101174.41
2023-05-01T19:57:35.991Z,101178.81
2023-05-01T20:00:12.364Z,101178.78
2023-05-01T20:02:42.715Z,101179.66
2023-05-01T20:05:15.663Z,101175.25
2023-05-01T20:07:49.425Z,101174.38
2023-05-01T20:10:21.352Z,101168.19
2023-05-01T20:12:51.294Z,101166.38
2023-05-01T20:15:25.094Z,101169.00
2023-05-01T20:17:54.910Z,101169.84
2023-05-01T20:20:25.425Z,101164.56
2023-05-01T20:23:13.761Z,101158.34
2023-05-01T20:25:47.143Z,101160.06
2023-05-01T20:28:17.304Z,101160.91
2023-05-01T20:30:49.572Z,101161.75
2023-05-01T20:33:19.919Z,101155.56
2023-05-01T20:35:51.471Z,101156.47
2023-05-01T20:38:22.072Z,101156.38
2023-05-01T20:40:52.974Z,101152.88
2023-05-01T20:43:23.310Z,101149.38
2023-05-01T20:45:56.262Z,101150.31
2023-05-01T20:48:28.611Z,101146.78
2023-05-01T20:51:01.230Z,101141.56
2023-05-01T20:53:31.407Z,101145.13
2023-05-01T20:56:02.721Z,101139.84
2023-05-01T20:58:42.684Z,101143.34
2023-05-01T21:01:30.698Z,101138.94
2023-05-01T21:04:01.961Z,101138.94
2023-05-01T21:06:33.562Z,101136.31
2023-05-01T21:09:04.296Z,101139.84
2023-05-01T21:11:35.192Z,101139.81
2023-05-01T21:14:05.392Z,101146.78
2023-05-01T21:16:37.823Z,101146.84
2023-05-01T21:19:08.001Z,101146.81
2023-05-01T21:21:38.211Z,101151.94
2023-05-01T21:24:09.139Z,101143.97
2023-05-01T21:26:39.742Z,101143.94
2023-05-01T21:29:10.225Z,101091.88
2023-05-01T21:31:42.151Z,101142.25
2023-05-01T21:34:12.114Z,101136.06
2023-05-01T21:36:45.200Z,101140.44
2023-05-01T21:39:16.007Z,101141.34
2023-05-01T21:41:49.375Z,101136.97
2023-05-01T21:44:19.344Z,101132.47
2023-05-01T21:46:51.456Z,101140.25
2023-05-01T21:49:23.314Z,101136.69
2023-05-01T21:51:53.898Z,101137.56
2023-05-01T21:54:23.917Z,101141.03
2023-05-01T21:56:54.665Z,101138.41
2023-05-01T21:59:24.483Z,101141.81
2023-05-01T22:01:56.204Z,101136.47
2023-05-01T22:04:25.966Z,101138.28
2023-05-01T22:06:58.434Z,101130.38
2023-05-01T22:09:28.233Z,101132.13
2023-05-01T22:11:59.378Z,101131.19
2023-05-01T22:14:43.790Z,101119.75
2023-05-01T22:17:24.422Z,101120.66
2023-05-01T22:19:54.838Z,101120.66
2023-05-01T22:22:25.282Z,101116.28
2023-05-01T22:24:55.623Z,101110.97
2023-05-01T22:27:26.012Z,101110.97
2023-05-01T22:29:55.962Z,101107.38
2023-05-01T22:32:27.721Z,101106.41
2023-05-01T22:34:57.478Z,101110.69
2023-05-01T22:37:27.655Z,101100.97
2023-05-01T22:39:57.569Z,101100.88
2023-05-01T22:42:28.176Z,101098.16
2023-05-01T22:44:57.957Z,101096.34
2023-05-01T22:47:29.692Z,101093.66
2023-05-01T22:49:59.544Z,101098.00
2023-05-01T22:52:29.749Z,101092.69
2023-05-01T22:54:59.518Z,101100.59
2023-05-01T22:57:29.738Z,101090.91
2023-05-01T22:59:59.757Z,101084.72
2023-05-01T23:02:31.796Z,101092.69
2023-05-01T23:05:01.844Z,101080.38
2023-05-01T23:07:31.949Z,101082.97
2023-05-01T23:10:02.489Z,101075.13
2023-05-01T23:12:33.028Z,101071.59
2023-05-01T23:15:02.704Z,101074.22
2023-05-01T23:17:36.375Z,101075.09
2023-05-01T23:20:07.579Z,101069.81
2023-05-01T23:22:38.465Z,101068.03
2023-05-01T23:25:14.258Z,101063.53
2023-05-01T23:27:53.064Z,101067.00
2023-05-01T23:30:23.124Z,101058.16
2023-05-01T23:32:56.543Z,101011.28
2023-05-01T23:35:26.518Z,101054.56
2023-05-01T23:37:56.652Z,101053.59
2023-05-01T23:40:26.565Z,101051.88
2023-05-01T23:42:56.699Z,101054.63
2023-05-01T23:45:26.353Z,101046.81
2023-05-01T23:47:57.953Z,101048.53
2023-05-01T23:50:27.817Z,101047.47
2023-05-01T23:52:57.953Z,101042.19
2023-05-01T23:55:27.869Z,101042.13
2023-05-01T23:57:58.673Z,101040.28
